Time;durP1;ratioP1;P1;durP2;ratioP2;P2;SDS_P1;SDS_P2;PMS_P1;PMS_P2;Temp;Humidity;BMP_temperature;BMP_pressure;BME280_temperature;BME280_humidity;BME280_pressure;Samples;Min_cycle;Max_cycle;Signal;HPM_P1;HPM_P2
2021/08/13 00:01:35;;;;;;;13.77;7.05;;;;;;;;;;4976648;28;20038;-54
2021/08/13 00:04:01;;;;;;;13.30;7.20;;;;;;;;;;4982981;28;20038;-51
2021/08/13 00:06:32;;;;;;;17.85;7.60;;;;;;;;;;4975945;28;20046;-51
2021/08/13 00:08:59;;;;;;;13.57;7.95;;;;;;;;;;4979451;28;20042;-54
2021/08/13 00:11:25;;;;;;;16.02;8.27;;;;;;;;;;4977007;28;20061;-50
2021/08/13 00:13:52;;;;;;;15.32;8.45;;;;;;;;;;4998867;28;20046;-51
2021/08/13 00:16:18;;;;;;;20.15;8.52;;;;;;;;;;4975989;28;20073;-51
2021/08/13 00:18:44;;;;;;;16.33;8.63;;;;;;;;;;5001099;28;20058;-50
2021/08/13 00:21:11;;;;;;;15.52;8.70;;;;;;;;;;4998197;28;20061;-50
2021/08/13 00:23:41;;;;;;;15.63;8.38;;;;;;;;;;4975343;28;20030;-51
2021/08/13 00:26:08;;;;;;;14.40;7.93;;;;;;;;;;4979271;28;20038;-52
2021/08/13 00:28:34;;;;;;;17.02;8.80;;;;;;;;;;4996046;28;20064;-52
2021/08/13 00:31:00;;;;;;;18.52;7.85;;;;;;;;;;4979296;28;20042;-52
2021/08/13 00:33:30;;;;;;;17.50;8.07;;;;;;;;;;4977309;28;20042;-52
2021/08/13 00:35:56;;;;;;;16.27;7.95;;;;;;;;;;4984137;28;20038;-49
2021/08/13 00:38:22;;;;;;;15.80;8.20;;;;;;;;;;4978683;28;20038;-52
2021/08/13 00:40:50;;;;;;;19.50;7.85;;;;;;;;;;4995950;28;20062;-54
2021/08/13 00:43:17;;;;;;;14.95;8.40;;;;;;;;;;4998443;28;20056;-50
2021/08/13 00:45:44;;;;;;;16.27;7.65;;;;;;;;;;4986123;28;20049;-49
2021/08/13 00:48:10;;;;;;;19.92;8.23;;;;;;;;;;5000456;28;20050;-54
2021/08/13 00:50:37;;;;;;;16.00;9.10;;;;;;;;;;4997363;28;20046;-51
2021/08/13 00:53:07;;;;;;;17.77;9.48;;;;;;;;;;4977753;28;20136;-52
2021/08/13 00:55:34;;;;;;;14.13;8.93;;;;;;;;;;4984646;28;20116;-53
2021/08/13 00:58:02;;;;;;;17.55;9.23;;;;;;;;;;4977055;28;20093;-52
2021/08/13 01:00:28;;;;;;;20.73;9.88;;;;;;;;;;4996215;28;20047;-56
2021/08/13 01:02:55;;;;;;;23.55;9.52;;;;;;;;;;4999790;28;20034;-52
2021/08/13 01:05:22;;;;;;;18.90;9.30;;;;;;;;;;4977682;28;20034;-52
2021/08/13 01:07:48;;;;;;;18.48;9.93;;;;;;;;;;4983546;28;20034;-55
2021/08/13 01:10:15;;;;;;;17.00;9.50;;;;;;;;;;4975086;28;20058;-50
2021/08/13 01:12:44;;;;;;;17.98;9.63;;;;;;;;;;4984605;28;20046;-50
2021/08/13 01:15:15;;;;;;;18.00;9.10;;;;;;;;;;4977183;28;20061;-55
2021/08/13 01:17:45;;;;;;;16.85;9.48;;;;;;;;;;4984215;28;20046;-55
2021/08/13 01:20:14;;;;;;;17.77;9.55;;;;;;;;;;4980156;28;20155;-49
2021/08/13 01:22:43;;;;;;;18.30;9.70;;;;;;;;;;4978457;28;20038;-51
2021/08/13 01:25:11;;;;;;;18.63;8.88;;;;;;;;;;4979445;28;20038;-53
2021/08/13 01:27:40;;;;;;;20.48;9.57;;;;;;;;;;4980941;28;20056;-53
2021/08/13 01:30:06;;;;;;;;;;;;;;;;;;4979165;28;20049;-54
2021/08/13 01:32:47;;;;;;;17.67;8.07;;;;;;;;;;5002443;28;19932;-52
2021/08/13 01:35:15;;;;;;;17.05;8.68;;;;;;;;;;4976237;28;20030;-52
2021/08/13 01:37:45;;;;;;;17.27;8.90;;;;;;;;;;4983743;28;20060;-54
2021/08/13 01:40:13;;;;;;;16.25;8.77;;;;;;;;;;4977935;28;20069;-49
2021/08/13 01:42:41;;;;;;;16.60;8.50;;;;;;;;;;4982390;28;20050;-52
2021/08/13 01:45:08;;;;;;;16.88;8.20;;;;;;;;;;4977679;28;20042;-50
2021/08/13 01:47:35;;;;;;;15.20;8.02;;;;;;;;;;4981516;28;20038;-50
2021/08/13 01:50:03;;;;;;;14.52;8.35;;;;;;;;;;4978065;28;20046;-51
2021/08/13 01:52:30;;;;;;;15.02;8.02;;;;;;;;;;4984984;28;20054;-49
2021/08/13 01:54:57;;;;;;;18.00;7.82;;;;;;;;;;4982789;28;20101;-54
2021/08/13 01:57:24;;;;;;;15.77;8.07;;;;;;;;;;4979017;28;20046;-51
2021/08/13 01:59:50;;;;;;;16.40;8.77;;;;;;;;;;4999786;28;20034;-52
2021/08/13 02:02:18;;;;;;;14.45;8.13;;;;;;;;;;4968785;28;20058;-51
2021/08/13 02:04:44;;;;;;;15.95;8.55;;;;;;;;;;4987175;28;20039;-51
2021/08/13 02:07:12;;;;;;;14.48;7.82;;;;;;;;;;4966986;28;20058;-54
2021/08/13 02:09:39;;;;;;;16.90;8.18;;;;;;;;;;4969865;28;20127;-50
2021/08/13 02:12:06;;;;;;;14.75;8.43;;;;;;;;;;4972547;28;20034;-51
2021/08/13 02:14:35;;;;;;;14.80;7.50;;;;;;;;;;4968941;28;20066;-55
2021/08/13 02:17:03;;;;;;;19.38;8.48;;;;;;;;;;4974261;28;20038;-51
2021/08/13 02:19:32;;;;;;;16.48;8.63;;;;;;;;;;4987542;28;20050;-52
2021/08/13 02:22:00;;;;;;;16.50;8.02;;;;;;;;;;4981892;28;20041;-51
2021/08/13 02:24:28;;;;;;;17.73;8.35;;;;;;;;;;4986580;28;20050;-55
2021/08/13 02:26:55;;;;;;;13.57;7.78;;;;;;;;;;4995793;28;20125;-54
2021/08/13 02:29:22;;;;;;;15.90;8.05;;;;;;;;;;4964947;28;20043;-49
2021/08/13 02:31:49;;;;;;;16.13;7.80;;;;;;;;;;4961514;28;20051;-52
2021/08/13 02:34:15;;;;;;;14.23;7.63;;;;;;;;;;4981819;28;20042;-52
2021/08/13 02:36:46;;;;;;;13.98;8.00;;;;;;;;;;4965108;28;20035;-50
2021/08/13 02:39:14;;;;;;;14.35;7.93;;;;;;;;;;4963939;28;20083;-52
2021/08/13 02:41:46;;;;;;;16.48;7.80;;;;;;;;;;4965151;28;20043;-52
2021/08/13 02:44:13;;;;;;;16.35;8.20;;;;;;;;;;4978415;28;20052;-53
2021/08/13 02:46:41;;;;;;;13.65;7.57;;;;;;;;;;4983389;28;20192;-52
2021/08/13 02:49:08;;;;;;;15.35;7.82;;;;;;;;;;4967529;28;20038;-53
2021/08/13 02:51:39;;;;;;;19.58;7.90;;;;;;;;;;4963117;28;20054;-50
2021/08/13 02:54:06;;;;;;;14.10;7.95;;;;;;;;;;4949792;28;20043;-53
2021/08/13 02:56:34;;;;;;;14.90;7.18;;;;;;;;;;4964614;28;20039;-50
2021/08/13 02:59:04;;;;;;;15.50;7.55;;;;;;;;;;4972278;28;20057;-54
2021/08/13 03:01:35;;;;;;;16.05;7.88;;;;;;;;;;4982190;28;20046;-53
2021/08/13 03:04:02;;;;;;;13.38;7.60;;;;;;;;;;4969940;28;20055;-52
2021/08/13 03:06:31;;;;;;;14.02;7.47;;;;;;;;;;4967169;28;20043;-52
2021/08/13 03:08:59;;;;;;;14.63;7.38;;;;;;;;;;4961937;28;20098;-52
2021/08/13 03:11:26;;;;;;;17.35;8.43;;;;;;;;;;4979892;28;20109;-53
2021/08/13 03:13:54;;;;;;;13.30;7.60;;;;;;;;;;4972736;28;20065;-53
2021/08/13 03:16:22;;;;;;;14.63;7.45;;;;;;;;;;4964405;28;20039;-53
2021/08/13 03:18:48;;;;;;;13.57;7.47;;;;;;;;;;4961316;28;20102;-50
2021/08/13 03:21:15;;;;;;;15.18;7.55;;;;;;;;;;4963014;28;20043;-53
2021/08/13 03:23:42;;;;;;;13.73;7.60;;;;;;;;;;4961420;28;20039;-55
2021/08/13 03:26:08;;;;;;;14.93;7.88;;;;;;;;;;4964366;28;20058;-56
2021/08/13 03:28:35;;;;;;;13.88;7.78;;;;;;;;;;4964506;28;20046;-56
2021/08/13 03:31:02;;;;;;;13.13;7.65;;;;;;;;;;4960899;28;20038;-53
2021/08/13 03:33:30;;;;;;;15.00;8.27;;;;;;;;;;4964109;28;20051;-54
2021/08/13 03:35:57;;;;;;;14.77;8.18;;;;;;;;;;4975999;28;20054;-52
2021/08/13 03:38:25;;;;;;;13.75;7.75;;;;;;;;;;4984572;28;20093;-53
2021/08/13 03:40:52;;;;;;;18.45;8.10;;;;;;;;;;4981117;28;20051;-52
2021/08/13 03:43:18;;;;;;;15.60;8.23;;;;;;;;;;4984945;28;20125;-51
2021/08/13 03:45:44;;;;;;;13.90;7.25;;;;;;;;;;4966834;28;20106;-52
2021/08/13 03:48:11;;;;;;;16.77;8.57;;;;;;;;;;4957776;28;20081;-48
2021/08/13 03:50:39;;;;;;;14.10;8.35;;;;;;;;;;4961102;28;20054;-51
2021/08/13 03:53:05;;;;;;;19.85;8.27;;;;;;;;;;4964511;28;20046;-49
2021/08/13 03:55:31;;;;;;;14.88;7.70;;;;;;;;;;4968937;28;20039;-53
2021/08/13 03:57:58;;;;;;;15.45;8.32;;;;;;;;;;4981854;28;20050;-53
2021/08/13 04:00:24;;;;;;;19.38;8.27;;;;;;;;;;4977208;28;20091;-53
2021/08/13 04:02:51;;;;;;;15.93;8.38;;;;;;;;;;4963591;28;20035;-51
2021/08/13 04:05:18;;;;;;;15.25;8.15;;;;;;;;;;4963185;28;20035;-51
2021/08/13 04:07:45;;;;;;;14.95;8.00;;;;;;;;;;4984063;28;20046;-53
2021/08/13 04:10:12;;;;;;;19.40;8.23;;;;;;;;;;4976218;28;20172;-51
2021/08/13 04:12:44;;;;;;;12.57;7.65;;;;;;;;;;4978536;28;20292;-51
2021/08/13 04:15:10;;;;;;;14.82;7.82;;;;;;;;;;4983906;28;20047;-54
2021/08/13 04:17:37;;;;;;;13.00;7.22;;;;;;;;;;4964692;28;20047;-51
2021/08/13 04:20:03;;;;;;;18.70;9.63;;;;;;;;;;4965083;28;20043;-53
2021/08/13 04:22:31;;;;;;;16.55;9.10;;;;;;;;;;4959342;28;20051;-55
2021/08/13 04:24:59;;;;;;;20.00;9.05;;;;;;;;;;4964735;28;20054;-53
2021/08/13 04:27:25;;;;;;;22.05;8.82;;;;;;;;;;4960201;28;20039;-49
2021/08/13 04:29:55;;;;;;;15.10;8.63;;;;;;;;;;4981063;28;20050;-47
2021/08/13 04:32:22;;;;;;;17.15;7.53;;;;;;;;;;4965686;28;20053;-50
2021/08/13 04:34:48;;;;;;;15.00;7.10;;;;;;;;;;4965305;28;20047;-51
2021/08/13 04:37:15;;;;;;;19.30;8.80;;;;;;;;;;4974220;28;20090;-50
2021/08/13 04:39:41;;;;;;;16.88;8.40;;;;;;;;;;4981163;28;20039;-51
2021/08/13 04:42:09;;;;;;;14.73;8.07;;;;;;;;;;4977715;28;20034;-49
2021/08/13 04:44:35;;;;;;;16.60;7.78;;;;;;;;;;4979551;28;20070;-51
2021/08/13 04:47:04;;;;;;;14.70;7.35;;;;;;;;;;4993624;28;20185;-52
2021/08/13 04:49:32;;;;;;;14.82;7.03;;;;;;;;;;4981545;28;20060;-50
2021/08/13 04:51:58;;;;;;;14.00;7.68;;;;;;;;;;4975613;28;20049;-50
2021/08/13 04:54:24;;;;;;;18.35;7.53;;;;;;;;;;4978837;28;20050;-53
2021/08/13 04:56:51;;;;;;;17.27;8.07;;;;;;;;;;4977813;28;20053;-49
2021/08/13 04:59:19;;;;;;;14.82;7.40;;;;;;;;;;4974684;28;20113;-51
2021/08/13 05:01:46;;;;;;;15.00;7.43;;;;;;;;;;4979553;28;20081;-54
2021/08/13 05:04:12;;;;;;;17.10;7.88;;;;;;;;;;4974761;28;20288;-50
2021/08/13 05:06:38;;;;;;;14.27;7.85;;;;;;;;;;4980943;28;20038;-54
2021/08/13 05:09:05;;;;;;;13.05;7.30;;;;;;;;;;4977177;28;20235;-55
2021/08/13 05:11:34;;;;;;;14.60;8.40;;;;;;;;;;4979077;28;20038;-51
2021/08/13 05:14:00;;;;;;;20.48;9.68;;;;;;;;;;4978274;28;20092;-53
2021/08/13 05:16:28;;;;;;;21.48;9.63;;;;;;;;;;4979831;28;20185;-54
2021/08/13 05:18:54;;;;;;;17.50;9.52;;;;;;;;;;4973929;28;20050;-49
2021/08/13 05:21:21;;;;;;;17.55;9.60;;;;;;;;;;4962813;28;20062;-50
2021/08/13 05:23:47;;;;;;;20.85;10.63;;;;;;;;;;4977018;28;20135;-51
2021/08/13 05:26:14;;;;;;;23.30;10.10;;;;;;;;;;4975986;28;20049;-50
2021/08/13 05:28:40;;;;;;;22.73;10.95;;;;;;;;;;4980155;28;20068;-48
2021/08/13 05:31:07;;;;;;;17.50;9.63;;;;;;;;;;5002010;28;20057;-50
2021/08/13 05:33:35;;;;;;;19.58;9.77;;;;;;;;;;4979404;28;20046;-51
2021/08/13 05:36:01;;;;;;;21.13;9.68;;;;;;;;;;4982527;28;20042;-51
2021/08/13 05:38:28;;;;;;;20.73;8.88;;;;;;;;;;4981571;28;20098;-52
2021/08/13 05:40:54;;;;;;;20.33;10.25;;;;;;;;;;4995731;28;20030;-49
2021/08/13 05:43:21;;;;;;;18.15;8.82;;;;;;;;;;4981450;28;20061;-50
2021/08/13 05:45:47;;;;;;;22.42;8.98;;;;;;;;;;4976335;28;20051;-51
2021/08/13 05:48:14;;;;;;;20.73;8.68;;;;;;;;;;4977998;28;20046;-52
2021/08/13 05:50:42;;;;;;;15.75;8.38;;;;;;;;;;4973128;28;20057;-50
2021/08/13 05:53:09;;;;;;;19.38;8.38;;;;;;;;;;4998358;28;20046;-50
2021/08/13 05:55:35;;;;;;;16.20;7.30;;;;;;;;;;4998083;28;20049;-52
2021/08/13 05:58:02;;;;;;;17.85;8.45;;;;;;;;;;4978484;28;20042;-48
2021/08/13 06:00:28;;;;;;;14.40;7.38;;;;;;;;;;4976918;28;20049;-50
2021/08/13 06:02:58;;;;;;;17.48;8.07;;;;;;;;;;4997925;28;20049;-51
2021/08/13 06:05:25;;;;;;;16.52;7.50;;;;;;;;;;4979557;28;20142;-47
2021/08/13 06:07:52;;;;;;;16.80;7.28;;;;;;;;;;4983627;28;20052;-49
2021/08/13 06:10:19;;;;;;;17.73;7.15;;;;;;;;;;4974314;28;20042;-48
2021/08/13 06:12:47;;;;;;;15.48;6.93;;;;;;;;;;4983666;28;20042;-48
2021/08/13 06:15:14;;;;;;;17.15;7.85;;;;;;;;;;4993498;28;20132;-48
2021/08/13 06:17:42;;;;;;;14.85;7.47;;;;;;;;;;4983618;28;20074;-49
2021/08/13 06:20:09;;;;;;;16.52;7.15;;;;;;;;;;4984980;28;20050;-52
2021/08/13 06:22:37;;;;;;;14.60;7.93;;;;;;;;;;4976168;28;20049;-53
2021/08/13 06:25:05;;;;;;;13.68;7.20;;;;;;;;;;4979620;28;20054;-53
2021/08/13 06:27:31;;;;;;;;;;;;;;;;;;4977845;28;20098;-52
2021/08/13 06:29:58;;;;;;;20.92;7.28;;;;;;;;;;4973406;28;19941;-53
2021/08/13 06:32:25;;;;;;;14.30;6.82;;;;;;;;;;4975428;28;20039;-52
2021/08/13 06:34:51;;;;;;;14.43;7.00;;;;;;;;;;4976908;28;20094;-54
2021/08/13 06:37:17;;;;;;;14.30;6.57;;;;;;;;;;4972108;28;20054;-54
2021/08/13 06:39:46;;;;;;;20.55;7.65;;;;;;;;;;4983939;28;20035;-51
2021/08/13 06:42:14;;;;;;;20.55;8.38;;;;;;;;;;4980079;28;20061;-53
2021/08/13 06:44:40;;;;;;;16.83;7.60;;;;;;;;;;4985396;28;20035;-52
2021/08/13 06:47:07;;;;;;;16.75;7.63;;;;;;;;;;4976238;28;20048;-53
2021/08/13 06:49:33;;;;;;;14.98;7.18;;;;;;;;;;4966963;28;20051;-55
2021/08/13 06:52:02;;;;;;;19.75;7.55;;;;;;;;;;4963606;28;20068;-52
2021/08/13 06:54:28;;;;;;;20.67;7.43;;;;;;;;;;4978497;28;20038;-52
2021/08/13 06:56:55;;;;;;;16.10;6.95;;;;;;;;;;4961909;28;20050;-54
2021/08/13 06:59:22;;;;;;;16.45;7.07;;;;;;;;;;4984284;28;20045;-54
2021/08/13 07:01:49;;;;;;;17.80;7.78;;;;;;;;;;4982804;28;20039;-51
2021/08/13 07:04:15;;;;;;;20.08;7.15;;;;;;;;;;4963272;28;20125;-52
2021/08/13 07:06:42;;;;;;;14.48;6.53;;;;;;;;;;4965707;28;20134;-48
2021/08/13 07:09:08;;;;;;;16.00;6.80;;;;;;;;;;4962861;28;20050;-52
2021/08/13 07:11:35;;;;;;;16.02;7.05;;;;;;;;;;4963538;28;20051;-50
2021/08/13 07:14:02;;;;;;;17.88;7.20;;;;;;;;;;4973203;28;20054;-50
2021/08/13 07:16:30;;;;;;;16.20;6.95;;;;;;;;;;4984109;28;20043;-53
2021/08/13 07:18:57;;;;;;;18.63;6.93;;;;;;;;;;4980491;28;20050;-52
2021/08/13 07:21:24;;;;;;;15.55;6.82;;;;;;;;;;4982880;28;20050;-53
2021/08/13 07:23:51;;;;;;;13.65;7.00;;;;;;;;;;4980656;28;20082;-52
2021/08/13 07:26:18;;;;;;;17.48;7.25;;;;;;;;;;4984297;28;20058;-54
2021/08/13 07:28:44;;;;;;;15.57;6.82;;;;;;;;;;4982874;28;20053;-49
2021/08/13 07:31:11;;;;;;;12.77;6.28;;;;;;;;;;4965619;28;20102;-52
2021/08/13 07:33:43;;;;;;;19.05;6.70;;;;;;;;;;4980094;28;20038;-52
2021/08/13 07:36:10;;;;;;;14.60;6.63;;;;;;;;;;4966429;28;20042;-53
2021/08/13 07:38:40;;;;;;;16.13;6.35;;;;;;;;;;4964339;28;20042;-55
2021/08/13 07:41:06;;;;;;;15.93;7.28;;;;;;;;;;4966922;28;20079;-53
2021/08/13 07:43:33;;;;;;;19.70;6.72;;;;;;;;;;4967381;28;20059;-50
2021/08/13 07:46:00;;;;;;;12.73;6.43;;;;;;;;;;4984538;28;20046;-53
2021/08/13 07:48:26;;;;;;;15.18;5.63;;;;;;;;;;4986696;28;20034;-54
2021/08/13 07:50:54;;;;;;;15.82;6.05;;;;;;;;;;4964620;28;20050;-53
2021/08/13 07:53:22;;;;;;;16.67;5.90;;;;;;;;;;4964784;28;20116;-50
2021/08/13 07:55:48;;;;;;;14.45;6.03;;;;;;;;;;4983974;28;20116;-51
2021/08/13 07:58:15;;;;;;;15.95;5.30;;;;;;;;;;4967691;28;20042;-52
2021/08/13 08:00:41;;;;;;;14.23;5.28;;;;;;;;;;4976990;28;20038;-52
2021/08/13 08:03:10;;;;;;;12.02;5.57;;;;;;;;;;4986026;28;20095;-52
2021/08/13 08:05:37;;;;;;;14.57;5.88;;;;;;;;;;4975441;28;20042;-53
2021/08/13 08:08:05;;;;;;;10.55;5.55;;;;;;;;;;4968091;28;20046;-52
2021/08/13 08:10:32;;;;;;;12.10;5.57;;;;;;;;;;4970574;28;20060;-52
2021/08/13 08:12:58;;;;;;;14.02;6.43;;;;;;;;;;4987190;28;20054;-48
2021/08/13 08:15:25;;;;;;;14.77;5.55;;;;;;;;;;4981882;28;20038;-53
2021/08/13 08:17:52;;;;;;;14.68;6.28;;;;;;;;;;4984009;28;20121;-50
2021/08/13 08:20:21;;;;;;;14.68;6.38;;;;;;;;;;4981792;28;20050;-50
2021/08/13 08:22:49;;;;;;;12.80;6.38;;;;;;;;;;4986394;28;20089;-49
2021/08/13 08:25:16;;;;;;;12.98;5.97;;;;;;;;;;4983236;28;20034;-53
2021/08/13 08:27:43;;;;;;;13.77;5.80;;;;;;;;;;4982694;28;20042;-52
2021/08/13 08:30:10;;;;;;;14.68;6.05;;;;;;;;;;4964839;28;20053;-52
2021/08/13 08:32:36;;;;;;;16.52;6.50;;;;;;;;;;4964029;28;20047;-50
2021/08/13 08:35:03;;;;;;;12.43;5.35;;;;;;;;;;4984665;28;20062;-54
2021/08/13 08:37:29;;;;;;;11.90;5.18;;;;;;;;;;4963770;28;20038;-51
2021/08/13 08:39:55;;;;;;;13.15;6.43;;;;;;;;;;4983743;28;20031;-54
2021/08/13 08:42:25;;;;;;;12.98;6.47;;;;;;;;;;4974960;28;20066;-53
2021/08/13 08:44:52;;;;;;;16.40;6.70;;;;;;;;;;4985730;28;20153;-51
2021/08/13 08:47:20;;;;;;;10.55;4.68;;;;;;;;;;4972521;28;20055;-51
2021/08/13 08:49:48;;;;;;;11.93;5.60;;;;;;;;;;4966642;28;20035;-55
2021/08/13 08:52:14;;;;;;;;;;;;;;;;;;4969351;28;20053;-52
2021/08/13 08:54:43;;;;;;;14.30;6.72;;;;;;;;;;4976289;28;19937;-50
2021/08/13 08:57:09;;;;;;;17.35;5.95;;;;;;;;;;4963817;28;20034;-53
2021/08/13 08:59:37;;;;;;;12.30;4.93;;;;;;;;;;4983763;28;20125;-53
2021/08/13 09:02:04;;;;;;;10.13;4.97;;;;;;;;;;4965503;28;20030;-52
2021/08/13 09:04:30;;;;;;;12.65;4.40;;;;;;;;;;4987081;28;20133;-50
2021/08/13 09:06:57;;;;;;;10.65;4.88;;;;;;;;;;4985244;28;20057;-51
2021/08/13 09:09:23;;;;;;;9.63;4.20;;;;;;;;;;4988510;28;20042;-53
2021/08/13 09:11:50;;;;;;;9.40;4.47;;;;;;;;;;4969498;28;20054;-55
2021/08/13 09:14:17;;;;;;;9.65;4.43;;;;;;;;;;4966937;28;20047;-52
2021/08/13 09:16:58;;;;;;;7.90;3.40;;;;;;;;;;4968443;28;20045;-52
2021/08/13 09:19:37;;;;;;;10.95;3.95;;;;;;;;;;4966328;28;20053;-55
2021/08/13 09:22:09;;;;;;;9.88;3.78;;;;;;;;;;4967976;28;20047;-52
2021/08/13 09:24:38;;;;;;;8.90;3.22;;;;;;;;;;4967149;28;20129;-55
2021/08/13 09:27:15;;;;;;;11.55;3.58;;;;;;;;;;4967199;28;20050;-54
2021/08/13 09:29:41;;;;;;;6.80;2.78;;;;;;;;;;4963576;28;20054;-56
2021/08/13 09:32:08;;;;;;;8.73;2.95;;;;;;;;;;4963823;28;20047;-54
2021/08/13 09:34:39;;;;;;;10.00;3.20;;;;;;;;;;4963616;28;20042;-55
2021/08/13 09:37:15;;;;;;;7.43;2.85;;;;;;;;;;4965065;28;20049;-56
2021/08/13 09:39:41;;;;;;;9.07;2.90;;;;;;;;;;4963159;28;20054;-57
2021/08/13 09:42:09;;;;;;;7.45;2.65;;;;;;;;;;4965034;28;20050;-52
2021/08/13 09:44:37;;;;;;;8.70;3.13;;;;;;;;;;4963304;28;20050;-52
2021/08/13 09:47:05;;;;;;;10.70;2.78;;;;;;;;;;4966907;28;20039;-57
2021/08/13 09:49:32;;;;;;;8.32;3.20;;;;;;;;;;4961436;28;20061;-55
2021/08/13 09:52:10;;;;;;;11.35;3.33;;;;;;;;;;4964395;28;20042;-55
2021/08/13 09:54:36;;;;;;;;;;;;;;;;;;4960296;28;20046;-56
2021/08/13 09:57:09;;;;;;;9.23;3.03;;;;;;;;;;4966172;28;19918;-52
2021/08/13 09:59:36;;;;;;;8.07;3.35;;;;;;;;;;4964297;28;20046;-57
2021/08/13 10:02:12;;;;;;;10.32;3.95;;;;;;;;;;4965971;28;20091;-54
2021/08/13 10:04:38;;;;;;;9.10;3.83;;;;;;;;;;4965700;28;20055;-53
2021/08/13 10:07:06;;;;;;;14.32;3.92;;;;;;;;;;4986387;28;20039;-54
2021/08/13 10:09:33;;;;;;;7.68;3.45;;;;;;;;;;4980119;28;20042;-51
2021/08/13 10:12:00;;;;;;;11.52;3.47;;;;;;;;;;4983196;28;20042;-55
2021/08/13 10:14:31;;;;;;;9.75;3.67;;;;;;;;;;4982790;28;20061;-54
2021/08/13 10:17:11;;;;;;;8.40;3.60;;;;;;;;;;4965483;28;20043;-52
2021/08/13 10:19:39;;;;;;;12.05;3.65;;;;;;;;;;4964591;28;20043;-54
2021/08/13 10:22:07;;;;;;;10.18;3.90;;;;;;;;;;4963140;28;20042;-52
2021/08/13 10:24:34;;;;;;;13.80;3.40;;;;;;;;;;4965497;28;20039;-53
2021/08/13 10:27:01;;;;;;;12.68;4.30;;;;;;;;;;4962851;28;20059;-50
2021/08/13 10:29:28;;;;;;;9.80;4.10;;;;;;;;;;4964867;28;20050;-51
2021/08/13 10:31:55;;;;;;;10.77;3.50;;;;;;;;;;4960735;28;20051;-55
2021/08/13 10:34:21;;;;;;;14.82;4.07;;;;;;;;;;4965845;28;20049;-50
2021/08/13 10:36:48;;;;;;;10.65;4.85;;;;;;;;;;4964081;28;20035;-56
2021/08/13 10:39:17;;;;;;;11.10;4.25;;;;;;;;;;4964865;28;20031;-52
2021/08/13 10:41:46;;;;;;;12.63;3.92;;;;;;;;;;4961203;28;20059;-54
2021/08/13 10:44:14;;;;;;;9.57;3.45;;;;;;;;;;4964779;28;20054;-52
2021/08/13 10:46:41;;;;;;;12.93;3.53;;;;;;;;;;4960854;28;20042;-55
2021/08/13 10:49:10;;;;;;;9.82;2.95;;;;;;;;;;4964732;28;20047;-56
2021/08/13 10:51:36;;;;;;;;;;;;;;;;;;4966738;28;20128;-57
2021/08/13 10:54:07;;;;;;;8.07;2.80;;;;;;;;;;4982583;28;19925;-55
2021/08/13 10:56:42;;;;;;;8.98;2.70;;;;;;;;;;4977119;28;20051;-56
2021/08/13 10:59:08;;;;;;;11.38;3.40;;;;;;;;;;4965154;28;20042;-54
2021/08/13 11:01:35;;;;;;;10.38;2.80;;;;;;;;;;4963543;28;20118;-55
2021/08/13 11:04:19;;;;;;;9.23;2.97;;;;;;;;;;4984009;28;20035;-53
2021/08/13 11:06:47;;;;;;;11.73;3.10;;;;;;;;;;4979459;28;20043;-52
2021/08/13 11:09:14;;;;;;;7.60;2.80;;;;;;;;;;4963447;28;20062;-55
2021/08/13 11:12:11;;;;;;;7.55;2.65;;;;;;;;;;4962667;28;20054;-56
2021/08/13 11:14:47;;;;;;;5.80;1.97;;;;;;;;;;4903246;29;20071;-57
2021/08/13 11:17:28;;;;;;;7.90;2.03;;;;;;;;;;4952385;28;20125;-57
2021/08/13 11:19:58;;;;;;;8.95;2.20;;;;;;;;;;4983976;28;20042;-58
2021/08/13 11:22:29;;;;;;;5.68;1.80;;;;;;;;;;4977018;28;20050;-53
2021/08/13 11:24:56;;;;;;;11.07;2.60;;;;;;;;;;4966092;28;20039;-55
2021/08/13 11:27:22;;;;;;;8.43;2.13;;;;;;;;;;4963741;28;20047;-54
2021/08/13 11:29:50;;;;;;;6.68;2.15;;;;;;;;;;4967689;28;20097;-55
2021/08/13 11:32:29;;;;;;;8.90;2.05;;;;;;;;;;4985575;28;20121;-57
2021/08/13 11:34:56;;;;;;;;;;;;;;;;;;4969325;28;20043;-53
2021/08/13 11:37:41;;;;;;;8.17;1.67;;;;;;;;;;4967308;28;19918;-54
2021/08/13 11:40:38;;;;;;;5.85;1.80;;;;;;;;;;4983684;28;20039;-56
2021/08/13 11:43:06;;;;;;;8.75;2.17;;;;;;;;;;4955855;28;20034;-56
2021/08/13 11:45:35;;;;;;;5.00;1.52;;;;;;;;;;4958906;28;20053;-55
2021/08/13 11:48:03;;;;;;;5.90;1.75;;;;;;;;;;4966127;28;20130;-54
2021/08/13 11:50:30;;;;;;;5.75;1.80;;;;;;;;;;4982972;28;20073;-54
2021/08/13 11:52:57;;;;;;;6.78;1.98;;;;;;;;;;4977056;28;20046;-52
2021/08/13 11:55:26;;;;;;;6.60;1.80;;;;;;;;;;4974865;28;20046;-56
2021/08/13 11:57:53;;;;;;;5.15;1.70;;;;;;;;;;4983882;28;20048;-58
2021/08/13 12:00:20;;;;;;;6.60;2.05;;;;;;;;;;4979544;28;20058;-56
2021/08/13 12:02:49;;;;;;;6.53;2.03;;;;;;;;;;5002316;28;20034;-56
2021/08/13 12:05:15;;;;;;;6.43;1.70;;;;;;;;;;4980900;28;20108;-56
2021/08/13 12:07:42;;;;;;;7.40;1.90;;;;;;;;;;4987027;28;20050;-55
2021/08/13 12:10:09;;;;;;;3.67;1.27;;;;;;;;;;4975135;28;20101;-54
2021/08/13 12:12:35;;;;;;;5.72;1.55;;;;;;;;;;4981587;28;20150;-56
2021/08/13 12:15:02;;;;;;;7.57;1.70;;;;;;;;;;4974544;28;21375;-58
2021/08/13 12:17:29;;;;;;;6.88;1.90;;;;;;;;;;4967007;28;20078;-54
2021/08/13 12:19:57;;;;;;;6.38;1.60;;;;;;;;;;4963577;28;20035;-55
2021/08/13 12:22:34;;;;;;;6.20;1.70;;;;;;;;;;4966765;28;20042;-52
2021/08/13 12:25:01;;;;;;;6.30;1.63;;;;;;;;;;4984412;28;20061;-54
2021/08/13 12:27:28;;;;;;;11.80;1.73;;;;;;;;;;4986160;28;20031;-55
2021/08/13 12:29:54;;;;;;;5.15;1.80;;;;;;;;;;4997472;28;20030;-57
2021/08/13 12:32:21;;;;;;;7.93;2.05;;;;;;;;;;4983627;28;20039;-55
2021/08/13 12:34:52;;;;;;;5.43;1.75;;;;;;;;;;4984740;28;20117;-55
2021/08/13 12:37:21;;;;;;;7.35;1.55;;;;;;;;;;4983417;28;20058;-53
2021/08/13 12:39:50;;;;;;;7.95;1.42;;;;;;;;;;4997921;28;20038;-54
2021/08/13 12:42:18;;;;;;;;;;;;;;;;;;4962693;28;20136;-52
2021/08/13 12:44:46;;;;;;;6.97;1.63;;;;;;;;;;4982746;28;19946;-55
2021/08/13 12:47:13;;;;;;;4.80;1.55;;;;;;;;;;4963240;28;20144;-55
2021/08/13 12:49:41;;;;;;;5.83;1.50;;;;;;;;;;4966529;28;20163;-53
2021/08/13 12:52:11;;;;;;;8.07;1.40;;;;;;;;;;4980808;28;20042;-55
2021/08/13 12:54:40;;;;;;;7.10;1.60;;;;;;;;;;4966536;28;20053;-55
2021/08/13 12:57:11;;;;;;;8.18;1.98;;;;;;;;;;4981372;28;20042;-57
2021/08/13 12:59:38;;;;;;;9.60;1.80;;;;;;;;;;4982684;28;20075;-53
2021/08/13 13:02:05;;;;;;;9.18;1.42;;;;;;;;;;4972540;28;20042;-55
2021/08/13 13:04:38;;;;;;;10.43;2.08;;;;;;;;;;4985833;28;20045;-55
2021/08/13 13:07:06;;;;;;;7.53;1.73;;;;;;;;;;4982741;28;20030;-52
2021/08/13 13:09:35;;;;;;;7.93;2.30;;;;;;;;;;4987010;28;20097;-57
2021/08/13 13:12:18;;;;;;;11.07;3.10;;;;;;;;;;4968452;28;20042;-56
2021/08/13 13:14:44;;;;;;;6.88;2.22;;;;;;;;;;5002543;28;20042;-54
2021/08/13 13:17:11;;;;;;;8.35;1.83;;;;;;;;;;4979773;28;20038;-56
2021/08/13 13:19:39;;;;;;;6.50;1.70;;;;;;;;;;4976744;28;20038;-55
2021/08/13 13:22:23;;;;;;;8.68;1.75;;;;;;;;;;4978019;28;20057;-54
2021/08/13 13:25:10;;;;;;;9.60;1.58;;;;;;;;;;4954529;28;20046;-56
2021/08/13 13:27:50;;;;;;;5.18;1.50;;;;;;;;;;4962242;28;20034;-56
2021/08/13 13:30:30;;;;;;;7.18;1.45;;;;;;;;;;4945478;28;20043;-55
2021/08/13 13:33:02;;;;;;;5.70;1.52;;;;;;;;;;4941700;28;20079;-56
2021/08/13 13:35:29;;;;;;;8.52;1.58;;;;;;;;;;4962246;28;20039;-55
2021/08/13 13:37:56;;;;;;;4.28;1.48;;;;;;;;;;4965240;28;20050;-56
2021/08/13 13:40:23;;;;;;;5.65;1.38;;;;;;;;;;4982548;28;20057;-54
2021/08/13 13:42:52;;;;;;;10.23;2.72;;;;;;;;;;4977362;28;20059;-54
2021/08/13 13:45:19;;;;;;;6.22;2.00;;;;;;;;;;4963442;28;20120;-53
2021/08/13 13:47:46;;;;;;;9.20;1.75;;;;;;;;;;4935070;28;20070;-57
2021/08/13 13:50:13;;;;;;;9.52;1.95;;;;;;;;;;4964969;28;20063;-55
2021/08/13 13:52:41;;;;;;;7.55;1.50;;;;;;;;;;4965459;28;20136;-57
2021/08/13 13:55:10;;;;;;;6.13;1.70;;;;;;;;;;4963978;28;20062;-58
2021/08/13 13:57:37;;;;;;;7.35;1.48;;;;;;;;;;4969037;28;20058;-55
2021/08/13 14:00:05;;;;;;;5.95;1.63;;;;;;;;;;4950047;28;20031;-57
2021/08/13 14:02:32;;;;;;;12.43;2.00;;;;;;;;;;4949001;28;20035;-53
2021/08/13 14:04:59;;;;;;;8.38;2.00;;;;;;;;;;4945796;28;20060;-54
2021/08/13 14:07:25;;;;;;;8.00;1.60;;;;;;;;;;4950075;28;20038;-55
2021/08/13 14:09:51;;;;;;;9.10;1.80;;;;;;;;;;4950297;28;20047;-56
2021/08/13 14:12:18;;;;;;;10.27;1.70;;;;;;;;;;4986293;28;20042;-57
2021/08/13 14:14:45;;;;;;;15.02;2.65;;;;;;;;;;4963703;28;20050;-54
2021/08/13 14:17:15;;;;;;;7.07;2.05;;;;;;;;;;4967949;28;20042;-53
2021/08/13 14:19:41;;;;;;;12.98;2.40;;;;;;;;;;4958940;28;20050;-53
2021/08/13 14:22:08;;;;;;;11.45;1.90;;;;;;;;;;4949681;28;20051;-55
2021/08/13 14:24:34;;;;;;;11.63;2.33;;;;;;;;;;4948406;28;20043;-57
2021/08/13 14:27:01;;;;;;;14.60;1.90;;;;;;;;;;4968346;28;20039;-56
2021/08/13 14:29:28;;;;;;;8.55;1.77;;;;;;;;;;4968203;28;20054;-56
2021/08/13 14:31:55;;;;;;;6.60;1.80;;;;;;;;;;4969475;28;20045;-56
2021/08/13 14:34:26;;;;;;;8.68;1.95;;;;;;;;;;4968446;28;20035;-55
2021/08/13 14:37:00;;;;;;;8.43;1.67;;;;;;;;;;4986576;28;20038;-57
2021/08/13 14:39:27;;;;;;;15.57;2.15;;;;;;;;;;4988387;28;20124;-55
2021/08/13 14:41:59;;;;;;;12.40;2.60;;;;;;;;;;4965118;28;20042;-57